createdAt,value
2022-08-27T00:03:11.369Z,22.90
2022-08-27T00:08:14.793Z,22.64
2022-08-27T00:13:17.373Z,22.53
2022-08-27T00:18:22.797Z,22.54
2022-08-27T00:23:25.459Z,22.39
2022-08-27T00:28:30.068Z,22.44
2022-08-27T00:33:32.769Z,22.37
2022-08-27T00:38:35.604Z,22.53
2022-08-27T00:44:04.133Z,22.42
2022-08-27T00:49:18.422Z,22.33
2022-08-27T00:54:21.775Z,22.24
2022-08-27T00:59:29.366Z,22.45
2022-08-27T01:04:34.951Z,22.15
2022-08-27T01:09:39.037Z,21.90
2022-08-27T01:14:42.213Z,21.87
2022-08-27T01:19:49.507Z,21.82
2022-08-27T01:24:55.322Z,21.75
2022-08-27T01:29:58.132Z,21.80
2022-08-27T01:35:01.982Z,21.94
2022-08-27T01:40:05.169Z,21.93
2022-08-27T01:45:09.619Z,21.57
2022-08-27T01:50:18.705Z,21.47
2022-08-27T01:55:25.177Z,21.51
2022-08-27T02:00:33.150Z,21.55
2022-08-27T02:05:39.329Z,21.36
2022-08-27T02:10:48.962Z,21.35
2022-08-27T02:15:51.433Z,21.22
2022-08-27T02:20:54.187Z,21.27
2022-08-27T02:25:56.680Z,21.23
2022-08-27T02:30:59.394Z,21.41
2022-08-27T02:36:01.867Z,21.26
2022-08-27T02:41:05.230Z,21.13
2022-08-27T02:46:07.775Z,21.18
2022-08-27T02:51:10.376Z,21.08
2022-08-27T02:56:13.021Z,21.25
2022-08-27T03:01:16.064Z,21.15
2022-08-27T03:06:18.677Z,21.15
2022-08-27T03:11:25.854Z,21.01
2022-08-27T03:16:28.457Z,20.92
2022-08-27T03:21:30.963Z,20.68
2022-08-27T03:26:34.599Z,20.60
2022-08-27T03:31:38.000Z,20.50
2022-08-27T03:36:40.481Z,20.50
2022-08-27T03:41:54.663Z,20.62
2022-08-27T03:46:58.323Z,20.66
2022-08-27T03:52:00.905Z,20.75
2022-08-27T03:57:03.783Z,20.74
2022-08-27T04:02:06.269Z,20.91
2022-08-27T04:07:10.721Z,20.93
2022-08-27T04:12:13.233Z,21.12
2022-08-27T04:17:16.409Z,21.12
2022-08-27T04:22:19.625Z,21.22
2022-08-27T04:27:22.844Z,21.21
2022-08-27T04:32:29.089Z,21.20
2022-08-27T04:37:33.368Z,21.42
2022-08-27T04:42:35.914Z,21.69
2022-08-27T04:47:38.512Z,22.80
2022-08-27T04:52:41.617Z,23.40
2022-08-27T04:57:44.134Z,23.69
2022-08-27T05:02:46.625Z,24.00
2022-08-27T05:07:49.299Z,23.96
2022-08-27T05:12:51.767Z,24.59
2022-08-27T05:17:54.536Z,24.99
2022-08-27T05:22:57.995Z,25.15
2022-08-27T05:28:00.670Z,25.19
2022-08-27T05:33:03.540Z,25.74
2022-08-27T05:38:06.142Z,25.85
2022-08-27T05:43:08.798Z,26.02
2022-08-27T05:48:12.269Z,26.05
2022-08-27T05:53:14.935Z,26.38
2022-08-27T05:58:35.895Z,26.64
2022-08-27T06:03:39.096Z,26.62
2022-08-27T06:08:42.132Z,26.71
2022-08-27T06:13:44.614Z,27.03
2022-08-27T06:18:48.948Z,27.16
2022-08-27T06:23:51.569Z,27.20
2022-08-27T06:28:54.356Z,27.38
2022-08-27T06:34:03.058Z,27.45
2022-08-27T06:39:13.982Z,27.58
2022-08-27T06:44:16.608Z,27.52
2022-08-27T06:49:19.568Z,27.47
2022-08-27T06:54:22.211Z,27.24
2022-08-27T06:59:25.317Z,27.33
2022-08-27T07:04:32.040Z,27.10
2022-08-27T07:09:35.405Z,27.08
2022-08-27T07:14:38.507Z,27.22
2022-08-27T07:19:41.526Z,27.31
2022-08-27T07:24:44.254Z,27.39
2022-08-27T07:29:46.856Z,27.54
2022-08-27T07:34:50.024Z,27.75
2022-08-27T07:39:52.686Z,28.04
2022-08-27T07:44:55.306Z,27.97
2022-08-27T07:49:59.243Z,28.02
2022-08-27T07:55:01.746Z,28.63
2022-08-27T08:00:06.685Z,28.32
2022-08-27T08:05:16.913Z,28.20
2022-08-27T08:10:23.616Z,28.41
2022-08-27T08:15:26.265Z,29.18
2022-08-27T08:20:54.309Z,29.18
2022-08-27T08:25:51.482Z,29.29
2022-08-27T08:30:54.981Z,29.45
2022-08-27T08:36:12.850Z,29.41
2022-08-27T08:41:41.622Z,30.24
2022-08-27T08:46:51.331Z,30.10
2022-08-27T08:51:56.533Z,30.08
2022-08-27T08:57:21.096Z,30.12
2022-08-27T09:02:24.020Z,30.25
2022-08-27T09:08:31.813Z,30.36
2022-08-27T09:13:55.720Z,30.44
2022-08-27T09:18:58.303Z,31.03
2022-08-27T09:24:15.499Z,31.24
2022-08-27T09:29:20.465Z,31.25
2022-08-27T09:34:23.847Z,31.28
2022-08-27T09:39:49.225Z,31.38
2022-08-27T09:44:55.847Z,31.45
2022-08-27T09:50:06.827Z,31.43
2022-08-27T09:55:10.348Z,31.50
2022-08-27T10:00:17.941Z,31.79
2022-08-27T10:05:34.024Z,31.90
2022-08-27T10:10:57.124Z,31.79
2022-08-27T10:16:21.167Z,32.01
2022-08-27T10:21:33.396Z,31.99
2022-08-27T10:27:05.465Z,32.14
2022-08-27T10:32:18.608Z,32.16
2022-08-27T10:37:43.567Z,32.66
2022-08-27T10:43:25.690Z,32.21
2022-08-27T10:48:44.944Z,32.31
2022-08-27T10:53:47.382Z,32.55
2022-08-27T10:58:58.756Z,32.39
2022-08-27T11:04:13.106Z,32.48
2022-08-27T11:09:27.107Z,32.52
2022-08-27T11:14:32.408Z,32.74
2022-08-27T11:19:56.164Z,32.78
2022-08-27T11:25:28.544Z,32.83
2022-08-27T11:30:49.320Z,33.00
2022-08-27T11:36:09.724Z,33.01
2022-08-27T11:41:44.810Z,33.06
2022-08-27T11:46:51.105Z,32.93
2022-08-27T11:51:59.224Z,33.05
2022-08-27T11:57:01.754Z,33.23
2022-08-27T12:02:26.262Z,32.97
2022-08-27T12:07:31.997Z,33.09
2022-08-27T12:12:43.713Z,33.40
2022-08-27T12:18:14.547Z,33.66
2022-08-27T12:23:40.392Z,33.48
2022-08-27T12:28:43.894Z,33.60
2022-08-27T12:33:48.201Z,33.44
2022-08-27T12:38:53.831Z,33.54
2022-08-27T12:44:11.392Z,33.83
2022-08-27T12:49:37.833Z,34.02
2022-08-27T12:54:46.867Z,34.46
2022-08-27T13:00:19.781Z,34.13
2022-08-27T13:05:40.287Z,34.18
2022-08-27T13:10:42.902Z,34.23
2022-08-27T13:15:51.364Z,33.63
2022-08-27T13:21:02.792Z,33.70
2022-08-27T13:26:10.457Z,33.91
2022-08-27T13:31:13.157Z,33.96
2022-08-27T13:36:31.030Z,33.67
2022-08-27T13:41:38.718Z,33.82
2022-08-27T13:46:47.878Z,34.10
2022-08-27T13:51:59.511Z,34.15
2022-08-27T13:57:08.948Z,33.30
2022-08-27T14:02:11.838Z,32.84
2022-08-27T14:07:20.537Z,33.51
2022-08-27T14:12:33.184Z,33.44
2022-08-27T14:17:38.446Z,33.37
2022-08-27T14:22:41.207Z,33.63
2022-08-27T14:27:54.491Z,33.76
2022-08-27T14:32:58.816Z,33.73
2022-08-27T14:38:30.396Z,33.94
2022-08-27T14:43:34.834Z,34.07
2022-08-27T14:48:37.819Z,33.70
2022-08-27T14:53:40.309Z,33.89
2022-08-27T14:58:42.890Z,33.94
2022-08-27T15:03:49.129Z,33.83
2022-08-27T15:08:52.292Z,33.93
2022-08-27T15:13:56.348Z,33.70
2022-08-27T15:19:00.632Z,33.84
2022-08-27T15:24:08.019Z,33.53
2022-08-27T15:29:10.847Z,33.38
2022-08-27T15:34:13.938Z,33.27
2022-08-27T15:39:16.768Z,33.26
2022-08-27T15:44:19.265Z,33.38
2022-08-27T15:49:21.969Z,33.15
2022-08-27T15:54:24.530Z,32.94
2022-08-27T15:59:27.757Z,32.74
2022-08-27T16:04:30.268Z,32.62
2022-08-27T16:09:32.839Z,32.40
2022-08-27T16:14:35.330Z,32.36
2022-08-27T16:19:39.178Z,32.34
2022-08-27T16:24:41.697Z,32.11
2022-08-27T16:29:44.227Z,31.89
2022-08-27T16:34:55.840Z,31.72
2022-08-27T16:39:58.743Z,31.49
2022-08-27T16:45:02.127Z,31.19
2022-08-27T16:50:26.257Z,30.92
2022-08-27T16:55:28.874Z,30.50
2022-08-27T17:00:32.418Z,30.12
2022-08-27T17:05:35.256Z,29.58
2022-08-27T17:10:46.475Z,29.14
2022-08-27T17:15:52.867Z,28.83
2022-08-27T17:20:56.451Z,28.56
2022-08-27T17:25:58.880Z,28.33
2022-08-27T17:31:02.606Z,28.08
2022-08-27T17:36:07.257Z,27.81
2022-08-27T17:41:13.487Z,27.58
2022-08-27T17:46:16.105Z,27.36
2022-08-27T17:51:20.272Z,27.07
2022-08-27T17:56:23.910Z,26.87
2022-08-27T18:01:29.817Z,26.67
2022-08-27T18:06:32.298Z,26.41
2022-08-27T18:11:35.113Z,26.21
2022-08-27T18:16:38.626Z,26.02
2022-08-27T18:21:46.224Z,25.85
2022-08-27T18:26:49.623Z,25.69
2022-08-27T18:31:52.098Z,25.55
2022-08-27T18:36:54.660Z,25.49
2022-08-27T18:41:57.263Z,25.45
2022-08-27T18:46:59.772Z,25.58
2022-08-27T18:52:02.440Z,25.07
2022-08-27T18:57:04.868Z,24.73
2022-08-27T19:02:08.612Z,24.46
2022-08-27T19:07:11.374Z,24.46
2022-08-27T19:12:14.873Z,24.52
2022-08-27T19:17:26.161Z,24.48
2022-08-27T19:22:30.793Z,24.37
2022-08-27T19:27:33.343Z,24.29
2022-08-27T19:32:35.821Z,24.13
2022-08-27T19:37:43.000Z,24.10
2022-08-27T19:42:45.679Z,24.03
2022-08-27T19:47:48.237Z,23.99
2022-08-27T19:52:51.562Z,23.92
2022-08-27T19:57:53.978Z,23.94
2022-08-27T20:02:56.890Z,23.94
2022-08-27T20:07:59.414Z,23.76
2022-08-27T20:13:01.858Z,23.66
2022-08-27T20:18:05.793Z,23.59
2022-08-27T20:23:08.651Z,23.50
2022-08-27T20:28:37.378Z,23.32
2022-08-27T20:33:34.295Z,23.36
2022-08-27T20:38:37.029Z,23.32
2022-08-27T20:43:39.700Z,23.28
2022-08-27T20:48:42.179Z,23.25
2022-08-27T20:53:44.791Z,23.17
2022-08-27T20:59:06.123Z,23.17
2022-08-27T21:04:08.605Z,23.14
2022-08-27T21:09:11.075Z,23.09
2022-08-27T21:14:16.045Z,23.05
2022-08-27T21:19:18.540Z,23.03
2022-08-27T21:24:21.283Z,22.96
2022-08-27T21:29:23.866Z,22.98
2022-08-27T21:34:28.270Z,23.14
2022-08-27T21:39:32.831Z,22.86
2022-08-27T21:44:36.025Z,22.82
2022-08-27T21:49:38.660Z,22.60
2022-08-27T21:54:42.225Z,22.47
2022-08-27T21:59:48.059Z,22.45
2022-08-27T22:04:51.540Z,22.36
2022-08-27T22:09:54.292Z,22.32
2022-08-27T22:14:56.768Z,22.58
2022-08-27T22:19:59.233Z,22.47
2022-08-27T22:25:01.640Z,22.65
2022-08-27T22:30:09.609Z,22.45
2022-08-27T22:35:15.138Z,22.46
2022-08-27T22:40:20.369Z,22.62
2022-08-27T22:45:23.081Z,22.56
2022-08-27T22:50:25.879Z,22.47
2022-08-27T22:55:28.794Z,22.67
2022-08-27T23:00:36.358Z,22.61
2022-08-27T23:05:41.388Z,22.59
2022-08-27T23:10:45.005Z,22.68
2022-08-27T23:15:47.568Z,22.59
2022-08-27T23:20:50.284Z,22.56
2022-08-27T23:26:11.258Z,22.58
2022-08-27T23:31:14.503Z,22.48
2022-08-27T23:36:16.991Z,22.31
2022-08-27T23:41:19.592Z,22.16
2022-08-27T23:46:22.017Z,22.12
2022-08-27T23:51:25.523Z,22.05
2022-08-27T23:56:30.177Z,21.94
